Time;durP1;ratioP1;P1;durP2;ratioP2;P2;SDS_P1;SDS_P2;PMS_P1;PMS_P2;Temp;Humidity;BMP_temperature;BMP_pressure;BME280_temperature;BME280_humidity;BME280_pressure;Samples;Min_cycle;Max_cycle;Signal;HPM_P1;HPM_P2
2021/12/25 00:01:46;;;;;;;8.98;4.35;;;0.60;99.90;;;;;;5060568;28;20083;-60
2021/12/25 00:04:11;;;;;;;8.20;4.35;;;0.60;99.90;;;;;;5060133;28;20410;-59
2021/12/25 00:06:37;;;;;;;9.20;3.45;;;0.50;99.90;;;;;;5061975;28;20037;-60
2021/12/25 00:09:04;;;;;;;7.05;3.30;;;0.50;99.90;;;;;;5062834;28;20037;-61
2021/12/25 00:11:30;;;;;;;8.88;3.95;;;0.50;99.90;;;;;;5061178;28;20045;-61
2021/12/25 00:13:56;;;;;;;5.95;2.85;;;0.50;99.90;;;;;;5066561;28;20516;-61
2021/12/25 00:16:21;;;;;;;7.43;3.40;;;0.40;99.90;;;;;;5062262;28;20135;-60
2021/12/25 00:18:47;;;;;;;7.15;2.58;;;0.40;99.90;;;;;;5060435;28;20056;-60
2021/12/25 00:21:12;;;;;;;7.75;3.70;;;0.40;99.90;;;;;;5064724;28;20044;-60
2021/12/25 00:23:39;;;;;;;6.78;3.42;;;0.50;99.90;;;;;;5067981;28;20037;-61
2021/12/25 00:26:11;;;;;;;10.60;3.78;;;0.40;99.90;;;;;;5058236;28;20512;-60
2021/12/25 00:28:52;;;;;;;5.40;3.03;;;0.40;99.90;;;;;;5070113;28;20048;-61
2021/12/25 00:36:11;;;;;;;7.57;3.00;;;0.40;99.90;;;;;;5065005;28;20133;-61
2021/12/25 00:38:37;;;;;;;6.40;3.25;;;0.40;99.90;;;;;;5058996;28;20037;-61
2021/12/25 00:41:06;;;;;;;5.32;2.88;;;0.30;99.90;;;;;;5060856;28;20094;-61
2021/12/25 00:43:32;;;;;;;7.10;3.85;;;0.30;99.90;;;;;;5062217;28;20067;-61
2021/12/25 00:45:58;;;;;;;10.75;3.53;;;0.30;99.90;;;;;;5058412;28;20459;-61
2021/12/25 00:48:24;;;;;;;6.25;2.58;;;0.30;99.90;;;;;;5061557;28;20045;-61
2021/12/25 00:50:49;;;;;;;9.02;3.30;;;0.20;99.90;;;;;;5063002;28;20047;-59
2021/12/25 00:53:15;;;;;;;8.88;4.13;;;0.20;99.90;;;;;;5064343;28;20033;-60
2021/12/25 00:55:41;;;;;;;9.13;3.70;;;0.20;99.90;;;;;;5059922;28;20044;-61
2021/12/25 00:58:06;;;;;;;4.20;2.60;;;0.20;99.90;;;;;;5057010;28;20102;-61
2021/12/25 01:00:32;;;;;;;6.60;3.50;;;0.20;99.90;;;;;;5060965;28;20403;-61
2021/12/25 01:02:57;;;;;;;4.80;2.53;;;0.20;99.90;;;;;;5060268;28;20037;-60
2021/12/25 01:05:23;;;;;;;7.20;2.95;;;0.20;99.90;;;;;;5064826;28;20100;-60
2021/12/25 01:07:49;;;;;;;3.63;1.67;;;0.10;99.90;;;;;;5063929;28;20511;-60
2021/12/25 01:10:18;;;;;;;3.03;1.42;;;0.10;99.90;;;;;;5060431;28;20530;-60
2021/12/25 01:12:57;;;;;;;3.03;1.55;;;0.10;99.90;;;;;;5064720;28;20057;-60
2021/12/25 01:15:31;;;;;;;7.25;2.13;;;0.10;99.90;;;;;;5061635;28;20068;-60
2021/12/25 01:18:12;;;;;;;2.53;1.30;;;0.10;99.90;;;;;;5060346;28;20704;-60
2021/12/25 01:21:02;;;;;;;5.28;1.80;;;0.00;99.90;;;;;;5068297;28;20067;-60
2021/12/25 01:31:29;;;;;;;2.63;1.65;;;0.00;99.90;;;;;;5065662;28;20859;-59
2021/12/25 01:34:26;;;;;;;6.05;1.65;;;0.00;99.90;;;;;;5063874;28;20076;-60
2021/12/25 01:42:07;;;;;;;2.85;1.70;;;-0.10;99.90;;;;;;5059209;28;20071;-60
2021/12/25 01:50:06;;;;;;;3.60;1.55;;;-0.20;99.90;;;;;;5065300;28;20056;-60
2021/12/25 01:52:32;;;;;;;5.07;1.75;;;-0.30;99.90;;;;;;5057945;28;20048;-60
2021/12/25 01:55:00;;;;;;;7.15;1.92;;;-0.30;99.90;;;;;;5064706;28;20056;-60
2021/12/25 01:57:28;;;;;;;2.20;1.55;;;-0.30;99.90;;;;;;5059165;28;20357;-60
2021/12/25 01:59:54;;;;;;;;;;;-0.30;99.90;;;;;;5060158;28;20081;-60
2021/12/25 02:02:20;;;;;;;2.83;1.35;;;-0.40;99.90;;;;;;5066995;28;19929;-60
2021/12/25 02:04:46;;;;;;;15.85;2.05;;;-0.40;99.90;;;;;;5060536;28;20044;-60
2021/12/25 02:07:11;;;;;;;4.70;1.75;;;-0.40;99.90;;;;;;5063387;28;20041;-59
2021/12/25 02:09:37;;;;;;;4.15;1.60;;;-0.50;99.90;;;;;;5059723;28;20052;-60
2021/12/25 02:12:03;;;;;;;3.33;1.52;;;-0.50;99.90;;;;;;5057184;28;20072;-60
2021/12/25 02:14:30;;;;;;;3.60;1.55;;;-0.60;99.90;;;;;;5063222;28;20064;-60
2021/12/25 02:17:02;;;;;;;5.68;1.52;;;-0.70;99.90;;;;;;5059744;28;20036;-60
2021/12/25 02:19:44;;;;;;;3.10;1.17;;;-0.70;99.90;;;;;;5061629;28;20048;-60
2021/12/25 02:22:11;;;;;;;2.92;1.30;;;-0.70;99.90;;;;;;5057583;28;20052;-60
2021/12/25 02:24:36;;;;;;;5.60;1.33;;;-0.70;99.90;;;;;;5062024;28;20543;-60
2021/12/25 02:27:04;;;;;;;3.20;1.42;;;-0.70;99.90;;;;;;5062752;28;20040;-59
2021/12/25 02:29:30;;;;;;;2.80;1.08;;;-0.80;99.90;;;;;;5062204;28;20483;-60
2021/12/25 02:31:56;;;;;;;2.75;1.10;;;-0.80;99.90;;;;;;5063688;28;20073;-59
2021/12/25 02:34:22;;;;;;;2.33;1.30;;;-0.80;99.90;;;;;;5063829;28;20398;-60
2021/12/25 02:36:48;;;;;;;3.50;1.20;;;-0.90;99.90;;;;;;5054706;28;20037;-60
2021/12/25 02:39:14;;;;;;;4.32;1.27;;;-0.90;99.90;;;;;;5060115;28;20052;-59
2021/12/25 02:41:40;;;;;;;3.25;1.15;;;-1.00;99.90;;;;;;5060930;28;20039;-60
2021/12/25 02:44:05;;;;;;;5.50;1.52;;;-1.10;99.90;;;;;;5055158;28;20572;-60
2021/12/25 02:46:31;;;;;;;2.53;0.70;;;-1.10;99.90;;;;;;5061592;28;20051;-59
2021/12/25 02:48:58;;;;;;;1.73;0.80;;;-1.20;99.90;;;;;;5060042;28;20167;-60
2021/12/25 02:51:24;;;;;;;4.40;1.17;;;-1.20;99.90;;;;;;5060854;28;20124;-60
2021/12/25 02:53:50;;;;;;;1.42;0.95;;;-1.30;99.90;;;;;;5057399;28;20052;-59
2021/12/25 02:56:16;;;;;;;1.10;0.80;;;-1.30;99.90;;;;;;5053887;28;20049;-60
2021/12/25 02:58:41;;;;;;;4.13;1.00;;;-1.30;99.90;;;;;;5054612;28;20032;-60
2021/12/25 03:01:16;;;;;;;3.95;0.80;;;-1.40;99.90;;;;;;5064457;28;20037;-59
2021/12/25 03:03:42;;;;;;;2.13;0.80;;;-1.40;99.90;;;;;;5060924;28;20048;-60
2021/12/25 03:06:09;;;;;;;2.17;0.80;;;-1.40;99.90;;;;;;5059090;28;20029;-60
2021/12/25 03:08:35;;;;;;;1.45;0.63;;;-1.50;99.90;;;;;;5061561;28;20045;-59
2021/12/25 03:11:06;;;;;;;2.72;0.85;;;-1.50;99.90;;;;;;5057833;28;20186;-59
2021/12/25 03:14:31;;;;;;;3.38;1.20;;;-1.50;99.90;;;;;;5057848;28;20047;-59
2021/12/25 03:16:20;;;;;;;3.05;0.70;;;-1.60;99.90;;;;;;5062753;28;20052;-60
2021/12/25 03:18:49;;;;;;;1.80;0.90;;;-1.60;99.90;;;;;;5058690;28;20463;-59
2021/12/25 03:21:19;;;;;;;2.35;1.02;;;-1.70;99.90;;;;;;5058629;28;20402;-60
2021/12/25 03:23:47;;;;;;;3.80;1.00;;;-1.70;99.90;;;;;;5050666;28;20045;-60
2021/12/25 03:26:12;;;;;;;3.38;0.82;;;-1.70;99.90;;;;;;5055657;28;20037;-60
2021/12/25 03:28:42;;;;;;;3.10;1.05;;;-1.70;99.90;;;;;;5061367;28;20735;-59
2021/12/25 03:31:18;;;;;;;2.50;0.80;;;-1.80;99.90;;;;;;5060086;28;20051;-59
2021/12/25 03:33:45;;;;;;;4.57;1.13;;;;;;;;;;5066998;28;20040;-60
2021/12/25 03:36:12;;;;;;;2.75;1.00;;;-1.80;99.90;;;;;;5061462;28;20643;-59
2021/12/25 03:38:37;;;;;;;3.40;1.13;;;-1.90;99.90;;;;;;5063127;28;20060;-59
2021/12/25 03:41:06;;;;;;;5.07;0.88;;;-1.90;99.90;;;;;;5060044;28;20079;-60
2021/12/25 03:43:39;;;;;;;3.00;0.82;;;-1.90;99.90;;;;;;5053721;28;20052;-59
2021/12/25 03:46:09;;;;;;;1.65;0.60;;;-1.90;99.90;;;;;;5063897;28;20443;-59
2021/12/25 03:59:17;;;;;;;1.70;0.65;;;-2.10;99.90;;;;;;5058976;28;20067;-60
2021/12/25 04:01:53;;;;;;;1.95;0.80;;;-2.10;99.90;;;;;;5061583;28;20071;-60
2021/12/25 04:04:25;;;;;;;1.95;1.00;;;-2.20;99.90;;;;;;5053196;28;20059;-60
2021/12/25 04:07:09;;;;;;;0.85;0.63;;;-2.20;99.90;;;;;;5065070;28;20040;-60
2021/12/25 04:09:37;;;;;;;1.75;0.93;;;-2.30;99.90;;;;;;5059827;28;20056;-60
2021/12/25 04:12:06;;;;;;;1.52;0.63;;;-2.30;99.90;;;;;;5055674;28;20063;-60
2021/12/25 04:14:32;;;;;;;2.20;0.88;;;-2.30;99.90;;;;;;5050233;28;20187;-59
2021/12/25 04:16:58;;;;;;;0.93;0.38;;;-2.40;99.90;;;;;;5055254;28;20577;-59
2021/12/25 04:19:25;;;;;;;1.73;0.57;;;-2.40;99.90;;;;;;5060273;28;20425;-60
2021/12/25 04:22:01;;;;;;;2.15;0.70;;;-2.50;99.90;;;;;;5059155;28;20123;-60
2021/12/25 04:24:31;;;;;;;1.58;0.57;;;-2.50;99.90;;;;;;5059371;28;20059;-60
2021/12/25 04:26:57;;;;;;;1.65;0.63;;;-2.50;99.90;;;;;;5067845;28;20627;-60
2021/12/25 04:42:56;;;;;;;1.67;0.80;;;-2.60;99.90;;;;;;5066580;28;20071;-60
2021/12/25 04:49:09;;;;;;;1.55;0.57;;;-2.70;99.90;;;;;;5063681;28;20048;-60
2021/12/25 05:04:13;;;;;;;1.58;0.60;;;-2.80;99.90;;;;;;5063382;28;20121;-60
2021/12/25 05:06:39;;;;;;;2.00;0.50;;;-2.90;99.90;;;;;;5057566;28;20056;-61
2021/12/25 05:09:05;;;;;;;2.65;0.73;;;-2.90;99.90;;;;;;5061423;28;20048;-60
2021/12/25 05:11:30;;;;;;;2.63;0.70;;;-2.90;99.90;;;;;;5056852;28;20430;-59
2021/12/25 05:13:56;;;;;;;0.85;0.50;;;-2.90;99.90;;;;;;5066009;28;20072;-60
2021/12/25 05:16:22;;;;;;;0.50;0.50;;;-2.90;99.90;;;;;;5068832;28;20047;-59
2021/12/25 05:18:50;;;;;;;0.73;0.57;;;-2.90;99.90;;;;;;5056800;28;20053;-59
2021/12/25 05:21:15;;;;;;;0.63;0.45;;;-2.90;99.90;;;;;;5053178;28;20067;-59
2021/12/25 05:23:42;;;;;;;2.28;0.80;;;-3.00;99.90;;;;;;5062841;28;20498;-60
2021/12/25 05:26:07;;;;;;;3.00;1.00;;;-3.00;99.90;;;;;;5070019;28;20036;-58
2021/12/25 05:28:42;;;;;;;2.25;0.90;;;-3.00;99.90;;;;;;5061613;28;20056;-60
2021/12/25 05:31:10;;;;;;;2.60;0.70;;;-3.00;99.90;;;;;;5069071;28;20045;-59
2021/12/25 05:33:37;;;;;;;1.67;0.80;;;-3.00;99.90;;;;;;5056513;28;20127;-59
2021/12/25 05:36:06;;;;;;;1.95;0.70;;;-3.00;99.90;;;;;;5063045;28;20151;-58
2021/12/25 05:38:34;;;;;;;2.40;0.98;;;-3.00;99.90;;;;;;5060823;28;20040;-59
2021/12/25 05:41:00;;;;;;;1.05;0.73;;;-3.00;99.90;;;;;;5062323;28;20053;-59
2021/12/25 05:43:25;;;;;;;1.00;0.60;;;-3.00;99.90;;;;;;5063276;28;20121;-60
2021/12/25 05:45:51;;;;;;;4.13;0.80;;;-3.00;99.90;;;;;;5056749;28;20111;-59
2021/12/25 05:48:17;;;;;;;1.42;0.68;;;-3.00;99.90;;;;;;5057144;28;20140;-60
2021/12/25 05:50:42;;;;;;;2.80;0.60;;;-3.00;99.90;;;;;;5058611;28;20036;-60
2021/12/25 05:53:08;;;;;;;0.50;0.50;;;-3.10;99.90;;;;;;5063595;28;20040;-60
2021/12/25 05:55:34;;;;;;;1.95;0.65;;;-3.10;99.90;;;;;;5062347;28;20079;-60
2021/12/25 05:58:03;;;;;;;1.20;0.60;;;-3.10;99.90;;;;;;5064062;28;20052;-60
2021/12/25 06:00:30;;;;;;;2.47;0.80;;;-3.10;99.90;;;;;;5061464;28;20053;-60
2021/12/25 06:02:55;;;;;;;0.73;0.60;;;-3.10;99.90;;;;;;5058686;28;20033;-60
2021/12/25 06:05:21;;;;;;;3.60;0.70;;;-3.10;99.90;;;;;;5058554;28;20131;-60
2021/12/25 06:07:47;;;;;;;0.30;0.30;;;-3.10;99.90;;;;;;5062374;28;20039;-60
2021/12/25 06:10:13;;;;;;;0.70;0.60;;;-3.10;99.90;;;;;;5062252;28;20101;-60
2021/12/25 06:12:41;;;;;;;1.88;0.70;;;-3.20;99.90;;;;;;5061278;28;20109;-60
2021/12/25 06:15:09;;;;;;;2.05;0.43;;;-3.20;99.90;;;;;;5057117;28;20083;-59
2021/12/25 06:17:35;;;;;;;2.25;0.63;;;-3.20;99.90;;;;;;5061009;28;20063;-59
2021/12/25 06:20:01;;;;;;;2.35;0.50;;;-3.20;99.90;;;;;;5056071;28;20054;-60
2021/12/25 06:22:27;;;;;;;0.47;0.40;;;-3.20;99.90;;;;;;5057561;28;20363;-60
2021/12/25 06:24:52;;;;;;;1.65;0.57;;;-3.20;99.90;;;;;;5061179;28;20464;-60
2021/12/25 06:27:19;;;;;;;0.77;0.38;;;-3.30;99.90;;;;;;5064243;28;20448;-60
2021/12/25 06:29:45;;;;;;;0.30;0.30;;;-3.30;99.90;;;;;;5059740;28;20071;-60
2021/12/25 06:32:11;;;;;;;0.30;0.30;;;-3.30;99.90;;;;;;5063501;28;20048;-60
2021/12/25 06:34:37;;;;;;;1.55;0.65;;;-3.30;99.90;;;;;;5062906;28;20129;-59
2021/12/25 06:37:03;;;;;;;1.50;0.40;;;-3.30;99.90;;;;;;5063929;28;20485;-60
2021/12/25 06:39:29;;;;;;;1.63;0.43;;;-3.30;99.90;;;;;;5065727;28;20102;-60
2021/12/25 06:41:55;;;;;;;1.10;0.40;;;-3.40;99.90;;;;;;5062259;28;20068;-60
2021/12/25 06:44:24;;;;;;;1.45;0.45;;;-3.40;99.90;;;;;;5061603;28;20137;-60
2021/12/25 06:46:50;;;;;;;2.20;0.55;;;-3.40;99.90;;;;;;5063497;28;20045;-60
2021/12/25 06:49:16;;;;;;;0.68;0.45;;;-3.40;99.90;;;;;;5062151;28;20049;-60
2021/12/25 06:51:42;;;;;;;0.47;0.47;;;-3.40;99.90;;;;;;5058733;28;20036;-60
2021/12/25 06:54:07;;;;;;;1.45;0.60;;;-3.50;99.90;;;;;;5058111;28;20044;-60
2021/12/25 06:56:33;;;;;;;3.03;0.70;;;-3.50;99.90;;;;;;5060071;28;20041;-60
2021/12/25 06:58:59;;;;;;;3.55;0.50;;;-3.50;99.90;;;;;;5058402;28;20048;-60
2021/12/25 07:01:24;;;;;;;1.20;0.40;;;-3.50;99.90;;;;;;5061035;28;20090;-60
2021/12/25 07:03:50;;;;;;;3.15;0.52;;;-3.50;99.90;;;;;;5057928;28;20491;-60
2021/12/25 07:06:16;;;;;;;0.40;0.40;;;-3.50;99.90;;;;;;5057599;28;20074;-60
2021/12/25 07:08:41;;;;;;;0.93;0.50;;;-3.50;99.90;;;;;;5061309;28;20544;-60
2021/12/25 07:11:07;;;;;;;1.17;0.63;;;-3.50;99.90;;;;;;5056763;28;20419;-59
2021/12/25 07:13:32;;;;;;;0.90;0.50;;;-3.60;99.90;;;;;;5058501;28;20514;-60
2021/12/25 07:15:58;;;;;;;2.45;0.57;;;-3.60;99.90;;;;;;5063752;28;20481;-60
2021/12/25 07:18:23;;;;;;;1.55;0.50;;;-3.60;99.90;;;;;;5065629;28;20505;-60
2021/12/25 07:20:51;;;;;;;0.90;0.50;;;-3.60;99.90;;;;;;5057641;28;20155;-60
2021/12/25 07:23:16;;;;;;;1.33;0.50;;;-3.60;99.90;;;;;;5060616;28;20057;-58
2021/12/25 07:25:42;;;;;;;1.48;0.50;;;-3.70;99.90;;;;;;5063199;28;20131;-59
2021/12/25 07:28:07;;;;;;;2.63;0.73;;;-3.70;99.90;;;;;;5059002;28;20037;-59
2021/12/25 07:30:33;;;;;;;1.27;0.50;;;-3.60;99.90;;;;;;5060075;28;20086;-60
2021/12/25 07:32:59;;;;;;;1.17;0.50;;;-3.70;99.90;;;;;;5059729;28;20374;-60
2021/12/25 07:35:26;;;;;;;0.93;0.50;;;-3.70;99.90;;;;;;5062880;28;20051;-60
2021/12/25 07:37:51;;;;;;;0.85;0.50;;;-3.70;99.90;;;;;;5061282;28;20041;-60
2021/12/25 07:40:17;;;;;;;0.73;0.47;;;-3.70;99.90;;;;;;5056091;28;20052;-59
2021/12/25 07:42:43;;;;;;;1.00;0.63;;;-3.80;99.90;;;;;;5056552;28;20044;-60
2021/12/25 07:45:11;;;;;;;1.13;0.45;;;-3.80;99.90;;;;;;5058357;28;20104;-60
2021/12/25 07:47:40;;;;;;;1.63;0.35;;;-3.80;99.90;;;;;;5056672;28;20111;-60
2021/12/25 07:50:08;;;;;;;0.88;0.60;;;-3.80;99.90;;;;;;5058656;28;20082;-58
2021/12/25 07:52:33;;;;;;;2.10;0.40;;;-3.80;99.90;;;;;;5055865;28;20440;-60
2021/12/25 07:54:59;;;;;;;1.30;0.50;;;-3.80;99.90;;;;;;5059877;28;20045;-60
2021/12/25 07:57:25;;;;;;;0.95;0.32;;;-3.90;99.90;;;;;;5066328;28;20557;-60
2021/12/25 07:59:51;;;;;;;4.20;0.40;;;-3.80;99.90;;;;;;5059265;28;20115;-60
2021/12/25 08:02:16;;;;;;;0.80;0.47;;;-3.80;99.90;;;;;;5064999;28;20116;-60
2021/12/25 08:04:42;;;;;;;1.63;0.60;;;-3.80;99.90;;;;;;5069072;28;20036;-60
2021/12/25 08:07:08;;;;;;;3.17;0.40;;;-3.80;99.90;;;;;;5054950;28;20045;-60
2021/12/25 08:09:35;;;;;;;0.43;0.30;;;-3.80;99.90;;;;;;5066589;28;20478;-60
2021/12/25 08:12:02;;;;;;;2.53;0.30;;;-3.70;99.90;;;;;;5068643;28;20200;-60
2021/12/25 08:14:28;;;;;;;0.80;0.40;;;-3.70;99.90;;;;;;5067384;28;20457;-60
2021/12/25 08:17:00;;;;;;;0.40;0.35;;;-3.70;99.90;;;;;;5063436;28;20136;-60
2021/12/25 08:19:26;;;;;;;2.53;0.60;;;-3.70;99.90;;;;;;5062134;28;20028;-60
2021/12/25 08:21:51;;;;;;;3.20;0.60;;;-3.60;99.90;;;;;;5065805;28;20538;-60
2021/12/25 08:24:18;;;;;;;4.55;0.70;;;-3.60;99.90;;;;;;5068006;28;20044;-61
2021/12/25 08:26:44;;;;;;;1.33;0.60;;;-3.60;99.90;;;;;;5062231;28;20041;-61
2021/12/25 08:29:10;;;;;;;0.35;0.30;;;-3.60;99.90;;;;;;5060210;28;20120;-61
2021/12/25 08:31:36;;;;;;;1.77;0.50;;;-3.60;99.90;;;;;;5056322;28;20126;-60
2021/12/25 08:34:02;;;;;;;0.90;0.50;;;-3.50;99.90;;;;;;5063995;28;20036;-61
2021/12/25 08:36:28;;;;;;;1.50;0.40;;;-3.50;99.90;;;;;;5066265;28;20171;-60
2021/12/25 08:38:53;;;;;;;1.55;0.50;;;-3.50;99.90;;;;;;5062488;28;20127;-61
2021/12/25 08:41:21;;;;;;;1.65;0.63;;;-3.50;99.90;;;;;;5061049;28;20068;-60
2021/12/25 08:43:48;;;;;;;0.73;0.40;;;-3.50;99.90;;;;;;5058320;28;20040;-62
2021/12/25 08:46:35;;;;;;;1.10;0.40;;;-3.50;99.90;;;;;;5064302;28;20045;-61
2021/12/25 08:49:00;;;;;;;1.55;0.40;;;-3.50;99.90;;;;;;5059991;28;20049;-61
2021/12/25 08:51:26;;;;;;;0.70;0.40;;;-3.40;99.90;;;;;;5056038;28;20060;-61
2021/12/25 08:53:52;;;;;;;2.85;0.40;;;-3.40;99.90;;;;;;5057284;28;20048;-61
2021/12/25 08:56:17;;;;;;;2.38;0.52;;;-3.40;99.90;;;;;;5056341;28;20032;-61
2021/12/25 08:58:43;;;;;;;2.00;0.93;;;-3.40;99.90;;;;;;5064183;28;20047;-61
2021/12/25 09:01:11;;;;;;;0.73;0.40;;;-3.40;99.90;;;;;;5061955;28;20037;-61
2021/12/25 09:03:37;;;;;;;0.82;0.50;;;-3.40;99.90;;;;;;5062590;28;20045;-61
2021/12/25 09:06:03;;;;;;;2.88;0.57;;;-3.40;99.90;;;;;;5064963;28;20078;-61
2021/12/25 09:08:30;;;;;;;2.53;0.50;;;-3.40;99.90;;;;;;5058064;28;20140;-61
2021/12/25 09:10:55;;;;;;;2.38;0.47;;;-3.40;99.90;;;;;;5056998;28;20052;-61
2021/12/25 09:13:22;;;;;;;2.92;0.65;;;-3.40;99.90;;;;;;5060079;28;20048;-61
2021/12/25 09:15:47;;;;;;;2.75;0.50;;;-3.30;99.90;;;;;;5055221;28;20036;-61
2021/12/25 09:18:13;;;;;;;5.82;0.77;;;-3.30;99.90;;;;;;5064944;28;20101;-61
2021/12/25 09:20:38;;;;;;;0.85;0.47;;;-3.30;99.90;;;;;;5067739;28;20048;-61
2021/12/25 09:23:04;;;;;;;2.28;0.43;;;-3.20;99.90;;;;;;5063301;28;20037;-62
2021/12/25 09:25:32;;;;;;;2.83;0.70;;;-3.20;99.90;;;;;;5064625;28;20048;-61
2021/12/25 09:27:57;;;;;;;1.38;0.45;;;-3.20;99.90;;;;;;5063003;28;20107;-62
2021/12/25 09:30:23;;;;;;;1.15;0.60;;;-3.10;99.90;;;;;;5061488;28;20052;-61
2021/12/25 09:32:49;;;;;;;1.55;0.57;;;-3.10;99.90;;;;;;5064985;28;20230;-61
2021/12/25 09:35:15;;;;;;;0.45;0.40;;;-3.00;99.90;;;;;;5059981;28;20140;-61
2021/12/25 09:37:40;;;;;;;4.35;0.90;;;-3.00;99.90;;;;;;5061742;28;20048;-62
2021/12/25 09:40:08;;;;;;;3.28;0.98;;;-3.00;99.90;;;;;;5059974;28;20470;-61
2021/12/25 09:42:34;;;;;;;0.73;0.50;;;-2.90;99.90;;;;;;5062940;28;20032;-61
2021/12/25 09:45:00;;;;;;;1.67;0.60;;;-2.90;99.90;;;;;;5066207;28;20286;-62
2021/12/25 09:47:26;;;;;;;1.38;0.60;;;-2.90;99.90;;;;;;5064890;28;20048;-61
2021/12/25 09:49:52;;;;;;;3.50;0.55;;;-2.90;99.90;;;;;;5060355;28;20060;-61
2021/12/25 09:52:18;;;;;;;1.77;0.52;;;-2.80;99.90;;;;;;5057628;28;20045;-61
2021/12/25 09:54:43;;;;;;;0.60;0.30;;;-2.80;99.90;;;;;;5058140;28;21193;-61
2021/12/25 09:57:09;;;;;;;2.42;0.70;;;-2.80;99.90;;;;;;5064244;28;20351;-61
2021/12/25 09:59:35;;;;;;;0.63;0.20;;;-2.80;99.90;;;;;;5061193;28;20395;-61
2021/12/25 10:02:01;;;;;;;4.25;0.75;;;-2.80;99.90;;;;;;5064306;28;20032;-61
2021/12/25 10:04:32;;;;;;;0.60;0.60;;;-2.80;99.90;;;;;;5060108;28;20048;-61
2021/12/25 10:06:58;;;;;;;1.17;0.57;;;-2.80;99.90;;;;;;5064409;28;20036;-61
2021/12/25 10:09:25;;;;;;;2.08;0.55;;;-2.80;99.90;;;;;;5069176;28;20059;-61
2021/12/25 10:12:10;;;;;;;2.05;0.55;;;-2.70;99.90;;;;;;5059859;28;20041;-61
2021/12/25 10:14:37;;;;;;;1.17;0.68;;;-2.70;99.90;;;;;;5061997;28;20072;-61
2021/12/25 10:17:21;;;;;;;2.67;0.70;;;-2.60;99.90;;;;;;5061099;28;20040;-62
2021/12/25 10:20:11;;;;;;;0.85;0.55;;;-2.60;99.90;;;;;;5064618;28;20057;-61
2021/12/25 10:23:07;;;;;;;1.38;0.50;;;-2.60;99.90;;;;;;5056416;28;20037;-62
2021/12/25 10:25:48;;;;;;;1.33;0.60;;;-2.50;99.90;;;;;;5064235;28;20048;-62
2021/12/25 10:28:16;;;;;;;1.50;0.45;;;-2.40;99.90;;;;;;5057338;28;20050;-62
2021/12/25 10:30:54;;;;;;;1.55;0.80;;;-2.40;99.90;;;;;;5058719;28;20033;-62
2021/12/25 10:33:23;;;;;;;2.70;0.70;;;-2.40;99.90;;;;;;5060463;28;20464;-62
2021/12/25 10:35:49;;;;;;;2.30;0.40;;;-2.30;99.90;;;;;;5059317;28;20080;-61
2021/12/25 10:38:17;;;;;;;3.08;0.60;;;-2.30;99.90;;;;;;5060402;28;20083;-62
2021/12/25 10:40:43;;;;;;;1.98;0.80;;;-2.20;99.90;;;;;;5060145;28;20054;-61
2021/12/25 10:43:19;;;;;;;1.65;0.70;;;-2.20;99.90;;;;;;5063075;28;20058;-62
2021/12/25 10:45:58;;;;;;;1.33;0.60;;;-2.20;99.90;;;;;;5058932;28;20563;-62
2021/12/25 10:48:30;;;;;;;1.67;0.70;;;-2.10;99.90;;;;;;5062748;28;20119;-62
2021/12/25 10:50:58;;;;;;;1.20;0.50;;;-2.10;99.90;;;;;;5053340;28;20094;-62
2021/12/25 10:53:28;;;;;;;3.53;0.47;;;-2.10;99.90;;;;;;5056566;28;20037;-62
2021/12/25 10:56:07;;;;;;;1.23;0.40;;;-2.00;99.90;;;;;;5058241;28;20098;-62
2021/12/25 10:58:33;;;;;;;2.30;0.52;;;-1.90;99.90;;;;;;5064299;28;20144;-62
2021/12/25 11:00:59;;;;;;;1.77;0.40;;;-1.90;99.90;;;;;;5052569;28;20098;-62
2021/12/25 11:03:34;;;;;;;2.15;0.55;;;-1.90;99.90;;;;;;5063472;28;20486;-62
2021/12/25 11:06:07;;;;;;;1.92;0.60;;;-1.90;99.90;;;;;;5061876;28;20056;-62
2021/12/25 11:08:33;;;;;;;1.35;0.50;;;-1.80;99.90;;;;;;5061847;28;20075;-61
2021/12/25 11:11:10;;;;;;;1.60;0.30;;;-1.80;99.90;;;;;;5058757;28;20164;-61
2021/12/25 11:13:55;;;;;;;5.00;0.88;;;-1.80;99.90;;;;;;5059391;28;20398;-62
2021/12/25 11:16:27;;;;;;;1.20;0.50;;;-1.80;99.90;;;;;;5060072;28;20036;-61
2021/12/25 11:19:12;;;;;;;3.20;0.60;;;-1.70;99.90;;;;;;5062021;28;20739;-62
2021/12/25 11:21:54;;;;;;;3.03;0.70;;;-1.70;99.90;;;;;;5059145;28;20056;-61
2021/12/25 11:24:21;;;;;;;0.73;0.60;;;-1.70;99.90;;;;;;5059964;28;20045;-62
2021/12/25 11:26:59;;;;;;;2.35;0.47;;;-1.60;99.90;;;;;;5060413;28;20051;-61
2021/12/25 11:29:27;;;;;;;1.45;0.63;;;-1.60;99.90;;;;;;5058270;28;20191;-62
2021/12/25 11:31:54;;;;;;;2.55;0.60;;;-1.50;99.90;;;;;;5062084;28;20044;-62
2021/12/25 11:34:21;;;;;;;0.65;0.60;;;-1.50;99.90;;;;;;5067298;28;20063;-62
2021/12/25 11:36:51;;;;;;;3.27;0.60;;;-1.40;99.90;;;;;;5065116;28;20131;-62
2021/12/25 11:39:20;;;;;;;2.75;0.65;;;-1.40;99.90;;;;;;5065429;28;20482;-62
2021/12/25 11:41:47;;;;;;;1.75;0.85;;;-1.30;99.90;;;;;;5063516;28;20044;-62
2021/12/25 11:44:40;;;;;;;2.75;0.70;;;-1.30;99.90;;;;;;5064054;28;20102;-62
2021/12/25 11:47:07;;;;;;;1.85;0.73;;;-1.30;99.90;;;;;;5059742;28;20041;-62
2021/12/25 11:49:50;;;;;;;1.85;0.50;;;-1.30;99.90;;;;;;5060003;28;20136;-62
2021/12/25 11:52:23;;;;;;;2.63;0.50;;;-1.20;99.90;;;;;;5066360;28;20405;-62
2021/12/25 11:55:17;;;;;;;1.80;0.70;;;-1.20;99.90;;;;;;5065504;28;20051;-62
2021/12/25 11:57:52;;;;;;;6.75;0.75;;;-1.10;99.90;;;;;;5065293;28;20127;-62
2021/12/25 12:00:38;;;;;;;0.73;0.60;;;-1.10;99.90;;;;;;5067886;28;20147;-62
2021/12/25 12:03:05;;;;;;;2.05;0.43;;;-1.10;99.90;;;;;;5066082;28;20044;-62
2021/12/25 12:05:34;;;;;;;2.95;0.60;;;-1.10;99.90;;;;;;5068433;28;20343;-61
2021/12/25 12:08:11;;;;;;;3.10;0.73;;;-1.00;99.90;;;;;;5063841;28;20052;-61
2021/12/25 12:10:46;;;;;;;3.58;0.60;;;-1.00;99.90;;;;;;5063711;28;20044;-61
2021/12/25 12:13:41;;;;;;;2.28;0.45;;;-1.00;99.90;;;;;;5062119;28;20343;-61
2021/12/25 12:16:06;;;;;;;0.95;0.45;;;-1.00;99.90;;;;;;5069890;28;20167;-62
2021/12/25 12:18:35;;;;;;;1.70;0.70;;;-1.00;99.90;;;;;;5066168;28;20132;-61
2021/12/25 12:21:10;;;;;;;2.45;0.70;;;-1.00;99.90;;;;;;5060012;28;20062;-62
2021/12/25 12:23:53;;;;;;;2.40;0.50;;;-0.90;99.90;;;;;;5063506;28;20049;-61
2021/12/25 12:26:43;;;;;;;2.00;0.60;;;-0.90;99.90;;;;;;5064177;28;20507;-61
2021/12/25 12:29:09;;;;;;;1.42;0.60;;;-1.00;99.90;;;;;;5067274;28;20098;-61
2021/12/25 12:31:43;;;;;;;3.58;0.85;;;-0.90;99.90;;;;;;5064629;28;20048;-61
2021/12/25 12:34:32;;;;;;;2.20;0.70;;;-0.90;99.90;;;;;;5061048;28;20064;-61
2021/12/25 12:37:13;;;;;;;4.00;0.50;;;-0.90;99.90;;;;;;5069543;28;20520;-60
2021/12/25 12:39:43;;;;;;;1.25;0.55;;;-0.90;99.90;;;;;;5052751;28;20095;-61
2021/12/25 12:42:12;;;;;;;0.93;0.50;;;-0.90;99.90;;;;;;5053570;28;20504;-61
2021/12/25 12:44:39;;;;;;;2.08;0.70;;;-0.90;99.90;;;;;;5066509;28;20045;-60
2021/12/25 12:47:23;;;;;;;0.60;0.60;;;-0.90;99.90;;;;;;5068171;28;20473;-61
2021/12/25 12:49:55;;;;;;;3.33;0.77;;;-0.90;99.90;;;;;;5061050;28;20090;-61
2021/12/25 12:52:27;;;;;;;1.95;0.65;;;-0.90;99.90;;;;;;5070345;28;20127;-61
2021/12/25 12:54:56;;;;;;;1.67;0.52;;;-0.90;99.90;;;;;;5059860;28;20037;-61
2021/12/25 12:57:32;;;;;;;0.93;0.45;;;-0.80;99.90;;;;;;5070694;28;20036;-61
2021/12/25 13:00:10;;;;;;;2.20;0.60;;;-0.80;99.90;;;;;;5066799;28;20195;-61
2021/12/25 13:02:42;;;;;;;1.35;0.47;;;-0.90;99.90;;;;;;5069338;28;20139;-61
2021/12/25 13:05:08;;;;;;;3.45;0.80;;;-0.90;99.90;;;;;;5059155;28;20163;-60
2021/12/25 13:07:36;;;;;;;3.55;0.90;;;-0.80;99.90;;;;;;5063600;28;20051;-61
2021/12/25 13:10:19;;;;;;;3.72;0.50;;;-0.80;99.90;;;;;;5065056;28;20561;-61
2021/12/25 13:12:48;;;;;;;1.67;0.50;;;-0.90;99.90;;;;;;5061172;28;20481;-61
2021/12/25 13:15:26;;;;;;;2.03;0.68;;;-0.80;99.90;;;;;;5063785;28;20225;-61
2021/12/25 13:18:03;;;;;;;1.33;0.43;;;-0.80;99.90;;;;;;5063274;28;20052;-61
2021/12/25 13:20:50;;;;;;;1.10;0.50;;;-0.90;99.90;;;;;;5066366;28;20063;-61
2021/12/25 13:23:18;;;;;;;0.77;0.47;;;-0.90;99.90;;;;;;5060239;28;20561;-61
2021/12/25 13:25:52;;;;;;;1.00;0.60;;;-0.90;99.90;;;;;;5071674;28;20045;-61
2021/12/25 13:28:19;;;;;;;1.98;0.82;;;-0.90;99.90;;;;;;5071522;28;20106;-61
2021/12/25 13:30:49;;;;;;;2.08;1.00;;;-0.90;99.90;;;;;;5061084;28;20057;-61
2021/12/25 13:33:19;;;;;;;0.90;0.63;;;-0.90;99.90;;;;;;5061982;28;20037;-61
2021/12/25 13:35:46;;;;;;;1.80;0.75;;;-0.90;99.90;;;;;;5053695;28;20146;-61
2021/12/25 13:38:12;;;;;;;0.93;0.70;;;-0.90;99.90;;;;;;5065074;28;20474;-61
2021/12/25 13:40:44;;;;;;;3.00;0.63;;;-0.90;99.90;;;;;;5061980;28;20133;-61
2021/12/25 13:43:10;;;;;;;1.25;0.70;;;-1.00;99.90;;;;;;5052566;28;20072;-61
2021/12/25 13:45:37;;;;;;;2.60;0.70;;;-1.00;99.90;;;;;;5066467;28;20087;-61
2021/12/25 13:48:05;;;;;;;2.20;0.70;;;-1.00;99.90;;;;;;5062896;28;20088;-61
2021/12/25 13:50:32;;;;;;;2.83;0.85;;;-1.00;99.90;;;;;;5064614;28;20132;-60
2021/12/25 13:53:00;;;;;;;3.35;0.68;;;-1.00;99.90;;;;;;5071379;28;20036;-61
2021/12/25 13:55:34;;;;;;;4.00;1.02;;;-1.00;99.90;;;;;;5070966;28;20048;-61
2021/12/25 13:58:02;;;;;;;2.80;0.80;;;-1.00;99.90;;;;;;5070282;28;20040;-60
2021/12/25 14:00:31;;;;;;;1.20;0.50;;;-1.00;99.90;;;;;;5062649;28;20517;-61
2021/12/25 14:03:06;;;;;;;2.60;0.90;;;-1.00;99.90;;;;;;5064679;28;20144;-61